Terminal Aerodrome Forecast
Issued by NWS Riverton, WY

Home | Current Version | Previous Version | Text Only | Print | Product List | Glossary On
Versions: 1 2 3 4 5 6 7 8 9 10 11 12 13 14 15 16 17 18
998
FTUS45 KRIW 211124
TAFRIW
TAF
KRIW 211124Z 2112/2212 29007KT P6SM SCT030 BKN070
      TEMPO 2112/2115 5SM -SN BKN030
     FM211700 33008KT P6SM SCT050 BKN080
     FM212200 VRB05KT P6SM SCT080
     FM220300 VRB04KT P6SM VCFG FEW004=

USA.gov is the U.S. government's official web portal to all federal, state and local government web resources and services.